Time;durP1;ratioP1;P1;durP2;ratioP2;P2;SDS_P1;SDS_P2;PMS_P1;PMS_P2;Temp;Humidity;BMP_temperature;BMP_pressure;BME280_temperature;BME280_humidity;BME280_pressure;Samples;Min_cycle;Max_cycle;Signal;HPM_P1;HPM_P2
2023/08/13 00:02:10;;;;;;;11.55;4.07;;;;;;;14.33;100.00;100964.09;4998498;28;20414;-84
2023/08/13 00:04:45;;;;;;;9.48;3.90;;;;;;;14.37;100.00;100971.41;5007067;28;20418;-84
2023/08/13 00:07:18;;;;;;;10.33;3.73;;;;;;;14.34;100.00;100984.91;4999455;28;20434;-83
2023/08/13 00:09:51;;;;;;;11.55;3.85;;;;;;;14.34;100.00;100976.69;4996621;28;20432;-83
2023/08/13 00:12:25;;;;;;;10.57;4.00;;;;;;;14.34;100.00;100985.72;5003095;28;20424;-84
2023/08/13 00:14:53;;;;;;;11.38;4.40;;;;;;;14.35;100.00;100981.88;5001490;28;20451;-84
2023/08/13 00:17:26;;;;;;;11.95;4.20;;;;;;;14.32;100.00;100979.72;4997492;28;20430;-84
2023/08/13 00:19:55;;;;;;;11.07;4.20;;;;;;;14.31;100.00;100978.09;5000040;28;20424;-84
2023/08/13 00:22:30;;;;;;;14.43;4.72;;;;;;;14.37;100.00;100985.09;4995234;28;20435;-84
2023/08/13 00:25:04;;;;;;;12.00;4.00;;;;;;;14.41;100.00;100986.13;4995290;28;20435;-83
2023/08/13 00:27:38;;;;;;;12.32;4.28;;;;;;;14.41;100.00;100982.59;5001776;28;20446;-84
2023/08/13 00:30:11;;;;;;;12.68;4.10;;;;;;;14.40;100.00;100980.97;4990873;28;20444;-84
2023/08/13 00:32:44;;;;;;;11.18;3.75;;;;;;;14.38;100.00;100973.06;4997235;28;20451;-84
2023/08/13 00:35:19;;;;;;;9.57;3.75;;;;;;;14.37;100.00;100979.63;5001764;28;20802;-84
2023/08/13 00:37:52;;;;;;;12.30;4.10;;;;;;;14.32;100.00;100981.63;4999282;28;20429;-84
2023/08/13 00:40:20;;;;;;;10.32;3.67;;;;;;;14.34;100.00;100987.66;5027203;28;20449;-82
2023/08/13 00:42:48;;;;;;;11.52;3.90;;;;;;;14.27;100.00;100982.53;5002452;28;20432;-83
2023/08/13 00:45:22;;;;;;;9.38;3.75;;;;;;;14.25;100.00;100984.75;5001827;28;20434;-84
2023/08/13 00:47:50;;;;;;;9.95;3.80;;;;;;;14.23;100.00;100993.25;5033935;28;20440;-84
2023/08/13 00:50:25;;;;;;;9.27;3.78;;;;;;;14.10;100.00;100989.34;5001072;28;20455;-84
2023/08/13 00:52:58;;;;;;;9.90;3.58;;;;;;;14.10;100.00;100986.63;5016068;28;20456;-83
2023/08/13 00:55:32;;;;;;;9.15;3.50;;;;;;;14.12;100.00;100992.59;5002466;28;21266;-83
2023/08/13 00:58:05;;;;;;;9.88;3.58;;;;;;;14.08;100.00;100993.50;5002931;28;20433;-84
2023/08/13 01:00:39;;;;;;;10.38;3.90;;;;;;;14.05;100.00;100988.63;5028932;28;20444;-84
2023/08/13 01:03:12;;;;;;;10.50;3.50;;;;;;;14.04;100.00;100992.47;5008022;28;20424;-83
2023/08/13 01:05:50;;;;;;;11.07;3.50;;;;;;;13.99;100.00;100996.09;5000123;28;20430;-83
2023/08/13 01:08:34;;;;;;;12.38;3.90;;;;;;;13.96;100.00;100999.41;4998354;28;20434;-82
2023/08/13 01:11:08;;;;;;;10.57;3.57;;;;;;;14.06;100.00;100995.72;5007049;28;20444;-83
2023/08/13 01:13:48;;;;;;;11.53;3.63;;;;;;;14.04;100.00;101004.22;5002148;28;20986;-83
2023/08/13 01:16:22;;;;;;;14.18;3.70;;;;;;;14.03;100.00;100991.66;4998906;28;20437;-82
2023/08/13 01:18:55;;;;;;;8.55;3.60;;;;;;;14.03;100.00;100993.56;5000939;28;20424;-83
2023/08/13 01:21:25;;;;;;;9.40;3.85;;;;;;;14.05;100.00;100991.34;5005580;28;20428;-82
2023/08/13 01:23:54;;;;;;;8.55;3.42;;;;;;;14.05;100.00;100996.81;5003768;28;20417;-82
2023/08/13 01:26:35;;;;;;;11.00;3.47;;;;;;;14.01;100.00;100996.59;4995108;28;20434;-83
2023/08/13 01:29:15;;;;;;;8.70;3.20;;;;;;;14.03;100.00;100994.38;5005254;28;20432;-82
2023/08/13 01:31:49;;;;;;;7.43;3.08;;;;;;;14.01;100.00;101004.81;5030965;28;20430;-82
2023/08/13 01:34:18;;;;;;;10.15;3.67;;;;;;;14.01;100.00;101004.00;5001842;28;20431;-82
2023/08/13 01:36:47;;;;;;;9.13;3.50;;;;;;;14.03;100.00;100997.13;5000391;28;20410;-82
2023/08/13 01:39:16;;;;;;;14.88;3.83;;;;;;;14.07;100.00;101003.63;4994949;28;20425;-82
2023/08/13 01:41:51;;;;;;;11.20;3.72;;;;;;;14.05;100.00;101010.50;4995832;28;20796;-82
2023/08/13 01:44:25;;;;;;;9.93;3.50;;;;;;;14.03;100.00;100999.03;5006206;28;20432;-83
2023/08/13 01:46:58;;;;;;;9.95;4.05;;;;;;;14.01;100.00;101006.75;5002644;28;20428;-82
2023/08/13 01:49:31;;;;;;;8.77;3.47;;;;;;;13.95;100.00;100995.84;4999408;28;20440;-83
2023/08/13 01:52:00;;;;;;;9.88;3.95;;;;;;;13.94;100.00;101001.63;4997638;28;21178;-82
2023/08/13 01:54:34;;;;;;;9.93;3.55;;;;;;;13.94;100.00;101009.84;4999427;28;20435;-82
2023/08/13 01:57:07;;;;;;;7.70;3.35;;;;;;;13.86;100.00;101005.81;5001030;28;20440;-82
2023/08/13 01:59:36;;;;;;;9.45;3.65;;;;;;;13.85;100.00;101011.59;5030914;28;20434;-82
2023/08/13 02:02:09;;;;;;;8.60;3.42;;;;;;;13.87;100.00;101009.38;4999134;28;20436;-82
2023/08/13 02:04:42;;;;;;;10.57;3.40;;;;;;;13.84;100.00;101007.25;4999127;28;20533;-81
2023/08/13 02:07:11;;;;;;;7.75;3.35;;;;;;;13.91;100.00;101013.16;5004154;28;20437;-82
2023/08/13 02:09:40;;;;;;;9.85;3.53;;;;;;;13.89;100.00;101018.09;4998118;28;20789;-82
2023/08/13 02:12:08;;;;;;;8.45;3.30;;;;;;;13.88;100.00;101006.34;5028686;28;20437;-82
2023/08/13 02:14:42;;;;;;;11.48;3.47;;;;;;;13.84;100.00;101004.50;4997951;28;20433;-82
2023/08/13 02:17:12;;;;;;;9.68;3.42;;;;;;;13.81;100.00;101003.19;4997897;28;20564;-82
2023/08/13 02:19:46;;;;;;;10.88;3.38;;;;;;;13.72;100.00;101010.41;4996886;28;20431;-82
2023/08/13 02:22:14;;;;;;;9.40;3.30;;;;;;;13.75;100.00;101013.38;4999718;28;21083;-82
2023/08/13 02:24:48;;;;;;;10.02;3.50;;;;;;;13.76;100.00;101006.78;4996994;28;20441;-82
2023/08/13 02:27:22;;;;;;;11.87;3.47;;;;;;;13.81;100.00;101000.44;4998560;28;20865;-82
2023/08/13 02:29:55;;;;;;;10.55;3.65;;;;;;;13.82;100.00;101003.97;4996238;28;20436;-83
2023/08/13 02:32:25;;;;;;;10.15;3.45;;;;;;;13.73;100.00;101010.09;4999765;28;20410;-82
2023/08/13 02:34:58;;;;;;;9.98;3.15;;;;;;;13.74;100.00;101017.19;4999790;28;20437;-82
2023/08/13 02:37:27;;;;;;;10.70;3.35;;;;;;;13.75;100.00;101023.47;4999036;28;20437;-83
2023/08/13 02:40:02;;;;;;;10.85;3.40;;;;;;;13.69;100.00;101024.66;5028530;28;20433;-83
2023/08/13 02:42:37;;;;;;;8.77;3.38;;;;;;;13.77;100.00;101024.00;5006820;28;21211;-83
2023/08/13 02:45:11;;;;;;;8.07;3.17;;;;;;;13.71;100.00;101027.91;5001639;28;20426;-82
2023/08/13 02:47:44;;;;;;;8.73;3.47;;;;;;;13.73;100.00;101014.75;4999539;28;20437;-82
2023/08/13 02:50:17;;;;;;;10.50;3.47;;;;;;;13.75;100.00;101018.84;4998946;28;20428;-82
2023/08/13 02:52:45;;;;;;;8.52;3.15;;;;;;;13.69;100.00;101019.19;5032402;28;20433;-83
2023/08/13 02:55:15;;;;;;;9.23;3.60;;;;;;;13.76;100.00;101014.16;4998531;28;20486;-82
2023/08/13 02:57:43;;;;;;;7.78;3.10;;;;;;;13.75;100.00;101013.38;5000642;28;20424;-83
2023/08/13 03:00:17;;;;;;;10.17;3.37;;;;;;;13.72;100.00;101013.13;5003593;28;20429;-83
2023/08/13 03:02:50;;;;;;;10.43;3.55;;;;;;;13.65;100.00;101021.69;5005422;28;20419;-83
2023/08/13 03:05:23;;;;;;;10.32;3.28;;;;;;;13.68;100.00;101018.34;5029378;28;20428;-83
2023/08/13 03:07:51;;;;;;;8.70;3.33;;;;;;;13.74;100.00;101022.69;4999469;28;20900;-83
2023/08/13 03:10:26;;;;;;;8.95;3.60;;;;;;;13.83;100.00;101022.81;4998524;28;20441;-82
2023/08/13 03:12:59;;;;;;;9.80;3.40;;;;;;;13.89;100.00;101023.56;5001115;28;20439;-83
2023/08/13 03:15:33;;;;;;;8.88;3.42;;;;;;;13.92;100.00;101022.97;5001525;28;20431;-83
2023/08/13 03:18:01;;;;;;;10.10;3.67;;;;;;;13.99;100.00;101023.44;5031008;28;20426;-83
2023/08/13 03:20:31;;;;;;;8.65;3.88;;;;;;;13.96;100.00;101018.53;4995470;28;20434;-82
2023/08/13 03:23:06;;;;;;;8.43;3.50;;;;;;;14.00;100.00;101016.84;5030853;28;20422;-83
2023/08/13 03:25:44;;;;;;;8.27;3.40;;;;;;;14.02;100.00;101013.84;4995016;28;20436;-83
2023/08/13 03:28:13;;;;;;;9.88;3.58;;;;;;;14.04;100.00;101020.63;5003381;28;20452;-82
2023/08/13 03:30:46;;;;;;;8.80;3.55;;;;;;;14.06;100.00;101021.16;4999826;28;20752;-83
2023/08/13 03:33:20;;;;;;;9.98;3.50;;;;;;;14.07;100.00;101016.50;4999613;28;20418;-83
2023/08/13 03:35:53;;;;;;;10.05;3.80;;;;;;;14.07;100.00;101017.31;4996999;28;20414;-83
2023/08/13 03:38:27;;;;;;;14.40;4.00;;;;;;;14.04;100.00;101023.34;5012000;28;20433;-83
2023/08/13 03:41:02;;;;;;;9.77;3.30;;;;;;;13.99;100.00;101017.97;5004469;28;20441;-83
2023/08/13 03:43:30;;;;;;;9.50;3.60;;;;;;;13.90;100.00;101022.47;4997211;28;20409;-83
2023/08/13 03:46:03;;;;;;;10.40;3.45;;;;;;;13.89;100.00;101018.94;4999446;28;20437;-83
2023/08/13 03:48:36;;;;;;;9.32;3.80;;;;;;;13.93;100.00;101022.72;5012101;28;20442;-82
2023/08/13 03:51:05;;;;;;;12.27;4.03;;;;;;;13.91;100.00;101022.19;5002837;28;20901;-83
2023/08/13 03:53:38;;;;;;;9.25;3.85;;;;;;;13.97;100.00;101016.66;5003936;28;20420;-82
2023/08/13 03:56:09;;;;;;;13.27;3.70;;;;;;;13.97;100.00;101014.72;4998469;28;20499;-83
2023/08/13 03:58:38;;;;;;;12.00;3.60;;;;;;;14.01;100.00;101018.47;5026396;28;20430;-83
2023/08/13 04:01:14;;;;;;;7.77;3.37;;;;;;;14.01;100.00;101020.41;4995588;28;20412;-83
2023/08/13 04:03:51;;;;;;;11.63;3.67;;;;;;;13.95;100.00;101012.28;5001246;28;20437;-82
2023/08/13 04:06:24;;;;;;;8.65;3.35;;;;;;;13.98;100.00;101018.28;4995028;28;20771;-82
2023/08/13 04:08:58;;;;;;;8.18;3.28;;;;;;;13.95;100.00;101017.75;4996209;28;20424;-83
2023/08/13 04:11:32;;;;;;;9.38;3.83;;;;;;;13.97;100.00;101022.91;5004660;28;20429;-83
2023/08/13 04:14:00;;;;;;;9.30;3.30;;;;;;;13.97;100.00;101028.38;5030700;28;20448;-82
2023/08/13 04:16:34;;;;;;;9.32;3.30;;;;;;;13.99;100.00;101019.88;5030877;28;20498;-83
2023/08/13 04:19:08;;;;;;;7.57;3.42;;;;;;;14.01;100.00;101020.41;5002367;28;20434;-82
2023/08/13 04:21:42;;;;;;;8.15;3.35;;;;;;;14.04;100.00;101022.56;4997081;28;20431;-83
2023/08/13 04:24:15;;;;;;;9.32;3.40;;;;;;;14.01;100.00;101026.69;5018501;28;20443;-82
2023/08/13 04:26:52;;;;;;;7.82;3.15;;;;;;;14.07;100.00;101030.16;5014711;28;20472;-83
2023/08/13 04:29:26;;;;;;;8.03;3.37;;;;;;;14.11;100.00;101032.03;5000338;28;20438;-83
2023/08/13 04:31:59;;;;;;;10.30;3.60;;;;;;;14.14;100.00;101038.84;4997436;28;20422;-83
2023/08/13 04:34:27;;;;;;;7.57;3.20;;;;;;;14.20;100.00;101023.97;5007320;28;20786;-82
2023/08/13 04:37:00;;;;;;;11.70;3.30;;;;;;;14.21;100.00;101027.50;5003733;28;20885;-83
2023/08/13 04:39:34;;;;;;;9.48;3.55;;;;;;;14.26;100.00;101033.72;5000462;28;20436;-82
2023/08/13 04:42:10;;;;;;;8.73;3.37;;;;;;;14.32;100.00;101028.19;4999200;28;20418;-82
2023/08/13 04:44:43;;;;;;;8.80;3.30;;;;;;;14.32;100.00;101030.91;5007280;28;20426;-82
2023/08/13 04:47:12;;;;;;;9.50;3.60;;;;;;;14.32;100.00;101033.66;5007876;28;20416;-82
2023/08/13 04:49:45;;;;;;;10.32;3.67;;;;;;;14.35;100.00;101036.63;5000313;28;20996;-82
2023/08/13 04:52:15;;;;;;;12.82;3.55;;;;;;;14.39;100.00;101026.72;4996898;28;20430;-82
2023/08/13 04:54:49;;;;;;;11.15;3.88;;;;;;;14.38;100.00;101032.50;5004279;28;20432;-82
2023/08/13 04:57:19;;;;;;;10.90;3.60;;;;;;;14.37;100.00;101033.59;4995773;28;20539;-82
2023/08/13 04:59:47;;;;;;;9.18;3.42;;;;;;;14.41;100.00;101029.16;5027863;28;20438;-82
2023/08/13 05:02:21;;;;;;;9.95;3.53;;;;;;;14.44;100.00;101029.38;5010302;28;20424;-81
2023/08/13 05:04:55;;;;;;;11.33;3.60;;;;;;;14.52;100.00;101027.06;5005065;28;20453;-82
2023/08/13 05:07:23;;;;;;;8.65;3.33;;;;;;;14.56;100.00;101034.38;5004623;28;20781;-82
2023/08/13 05:09:53;;;;;;;9.55;3.47;;;;;;;14.62;100.00;101038.72;5003661;28;20877;-82
2023/08/13 05:12:27;;;;;;;7.78;3.30;;;;;;;14.63;100.00;101028.56;5000081;28;20437;-82
2023/08/13 05:14:57;;;;;;;8.98;3.42;;;;;;;14.64;100.00;101021.97;5003474;28;20463;-82
2023/08/13 05:17:31;;;;;;;7.72;3.50;;;;;;;14.65;100.00;101023.59;5007396;28;20440;-82
2023/08/13 05:20:06;;;;;;;9.57;3.67;;;;;;;14.62;100.00;101025.03;5001251;28;20423;-82
2023/08/13 05:22:39;;;;;;;10.27;3.90;;;;;;;14.63;100.00;101023.09;4995231;28;20428;-82
2023/08/13 05:25:08;;;;;;;8.02;3.83;;;;;;;14.71;100.00;101022.41;5002653;28;20449;-84
2023/08/13 05:27:38;;;;;;;9.30;3.78;;;;;;;14.70;100.00;101023.50;4998367;28;20424;-82
2023/08/13 05:30:14;;;;;;;9.98;4.00;;;;;;;14.66;100.00;101024.41;5014203;28;20441;-82
2023/08/13 05:32:48;;;;;;;8.05;3.85;;;;;;;14.78;100.00;101016.53;5002420;28;20769;-82
2023/08/13 05:35:18;;;;;;;11.93;4.22;;;;;;;14.75;100.00;101023.44;5002005;28;20433;-82
2023/08/13 05:37:46;;;;;;;11.18;4.00;;;;;;;14.83;100.00;101030.16;5001754;28;20431;-83
2023/08/13 05:40:19;;;;;;;10.10;4.28;;;;;;;14.87;100.00;101027.63;4996058;28;20433;-83
2023/08/13 05:42:54;;;;;;;10.15;3.80;;;;;;;14.93;100.00;101024.50;5006192;28;20483;-83
2023/08/13 05:45:28;;;;;;;9.45;3.80;;;;;;;14.92;100.00;101025.59;5031103;28;20437;-82
2023/08/13 05:48:03;;;;;;;10.65;3.90;;;;;;;14.99;100.00;101029.88;5006185;28;20427;-83
2023/08/13 05:50:32;;;;;;;9.23;4.00;;;;;;;14.94;100.00;101025.28;5001669;28;20442;-84
2023/08/13 05:53:05;;;;;;;9.80;3.90;;;;;;;14.99;100.00;101027.16;5027285;28;20441;-83
2023/08/13 05:55:33;;;;;;;10.63;4.30;;;;;;;15.01;100.00;101028.47;5011995;28;20436;-83
2023/08/13 05:58:08;;;;;;;10.73;3.90;;;;;;;15.09;100.00;101021.47;5000079;28;20434;-83
2023/08/13 06:00:37;;;;;;;12.93;4.25;;;;;;;15.09;100.00;101030.53;4999325;28;21203;-84
2023/08/13 06:03:05;;;;;;;8.98;4.05;;;;;;;15.14;100.00;101029.59;5002053;28;20746;-83
2023/08/13 06:05:33;;;;;;;9.17;4.20;;;;;;;15.13;100.00;101030.72;4998582;28;20424;-84
2023/08/13 06:08:07;;;;;;;10.40;4.40;;;;;;;15.17;100.00;101028.19;4996118;28;20445;-84
2023/08/13 06:10:40;;;;;;;9.18;4.50;;;;;;;15.13;100.00;101026.06;4996236;28;20446;-84
2023/08/13 06:13:09;;;;;;;9.32;4.25;;;;;;;15.19;100.00;101023.22;4996983;28;20430;-84
2023/08/13 06:15:38;;;;;;;9.93;4.35;;;;;;;15.28;100.00;101026.88;4996153;28;20453;-84
2023/08/13 06:18:07;;;;;;;12.38;4.60;;;;;;;15.24;100.00;101034.88;4997621;28;20503;-83
2023/08/13 06:20:40;;;;;;;12.23;4.40;;;;;;;15.30;100.00;101038.34;4999909;28;20906;-85
2023/08/13 06:23:13;;;;;;;8.95;4.43;;;;;;;15.32;100.00;101029.84;4999757;28;20453;-84
2023/08/13 06:25:41;;;;;;;8.05;4.25;;;;;;;15.39;100.00;101030.25;4998906;28;20785;-84
2023/08/13 06:28:16;;;;;;;9.70;4.38;;;;;;;15.47;100.00;101035.84;4998767;28;20431;-83
2023/08/13 06:30:50;;;;;;;8.90;4.53;;;;;;;15.45;100.00;101038.06;4995045;28;20438;-83
2023/08/13 06:33:23;;;;;;;9.13;4.30;;;;;;;15.60;100.00;101034.19;4997566;28;20445;-83
2023/08/13 06:35:51;;;;;;;9.70;4.43;;;;;;;15.63;100.00;101035.53;4997890;28;20493;-83
2023/08/13 06:38:26;;;;;;;10.70;4.40;;;;;;;15.60;100.00;101049.84;4996123;28;20437;-83
2023/08/13 06:40:54;;;;;;;10.33;4.47;;;;;;;15.69;100.00;101047.19;5003464;28;20433;-83
2023/08/13 06:43:28;;;;;;;10.40;4.20;;;;;;;15.79;100.00;101050.59;4999561;28;20419;-83
2023/08/13 06:46:03;;;;;;;9.93;4.40;;;;;;;15.88;100.00;101049.88;4997319;28;20423;-83
2023/08/13 06:48:38;;;;;;;10.25;4.35;;;;;;;15.92;100.00;101046.22;4995927;28;20437;-83
2023/08/13 06:51:11;;;;;;;9.02;4.60;;;;;;;16.10;100.00;101038.13;5010974;28;20447;-83
2023/08/13 06:53:45;;;;;;;12.27;4.55;;;;;;;16.16;100.00;101045.16;5027707;28;20444;-82
2023/08/13 06:56:18;;;;;;;9.52;4.50;;;;;;;16.21;100.00;101050.50;4999980;28;20439;-83
2023/08/13 06:58:53;;;;;;;10.38;4.35;;;;;;;16.23;100.00;101042.78;5027316;28;20458;-83
2023/08/13 07:01:26;;;;;;;11.27;4.50;;;;;;;16.35;100.00;101044.19;4996280;28;20439;-82
2023/08/13 07:03:59;;;;;;;9.50;4.32;;;;;;;16.35;100.00;101050.50;5012266;28;20442;-83
2023/08/13 07:06:27;;;;;;;8.00;4.07;;;;;;;16.39;100.00;101039.69;4996246;28;20481;-82
2023/08/13 07:08:56;;;;;;;9.75;4.22;;;;;;;16.47;100.00;101042.53;4995158;28;20426;-81
2023/08/13 07:11:29;;;;;;;9.25;4.50;;;;;;;16.74;100.00;101034.47;4991947;28;20468;-82
2023/08/13 07:14:04;;;;;;;9.82;4.10;;;;;;;16.95;100.00;101037.53;4991521;28;20436;-83
2023/08/13 07:16:32;;;;;;;11.35;4.28;;;;;;;17.08;100.00;101038.56;5021548;28;20442;-82
2023/08/13 07:19:01;;;;;;;9.10;4.20;;;;;;;17.07;100.00;101037.78;4994495;28;20436;-82
2023/08/13 07:21:34;;;;;;;10.30;4.00;;;;;;;17.10;100.00;101039.88;4993602;28;20438;-82
2023/08/13 07:24:04;;;;;;;9.50;3.80;;;;;;;17.17;100.00;101044.94;4997839;28;20498;-80
2023/08/13 07:26:32;;;;;;;10.02;3.72;;;;;;;17.13;100.00;101039.25;5002486;28;20430;-82
2023/08/13 07:29:07;;;;;;;9.90;4.00;;;;;;;17.17;100.00;101043.00;4996318;28;20441;-82
2023/08/13 07:31:40;;;;;;;9.70;4.03;;;;;;;17.33;100.00;101042.56;4996627;28;20448;-82
2023/08/13 07:34:13;;;;;;;7.93;3.80;;;;;;;17.46;100.00;101041.66;4999820;28;20424;-81
2023/08/13 07:36:47;;;;;;;8.77;3.97;;;;;;;17.76;100.00;101046.63;4997709;28;20504;-82
2023/08/13 07:39:16;;;;;;;8.98;3.63;;;;;;;17.85;100.00;101050.22;4999468;28;20424;-83
2023/08/13 07:41:49;;;;;;;10.05;3.42;;;;;;;17.89;100.00;101048.44;4995468;28;20438;-82
2023/08/13 07:44:24;;;;;;;8.45;3.25;;;;;;;17.90;100.00;101041.81;4997278;28;20420;-82
2023/08/13 07:46:55;;;;;;;7.75;3.33;;;;;;;18.09;100.00;101041.56;4997969;28;20438;-83
2023/08/13 07:49:24;;;;;;;10.40;3.53;;;;;;;18.14;100.00;101046.88;4997869;28;20469;-83
2023/08/13 07:51:58;;;;;;;10.75;3.80;;;;;;;18.31;100.00;101051.63;4995190;28;20436;-84
2023/08/13 07:54:31;;;;;;;9.30;3.33;;;;;;;18.26;100.00;101054.53;4997597;28;20433;-81
2023/08/13 07:56:59;;;;;;;9.43;3.20;;;;;;;18.28;100.00;101056.94;5009371;28;20441;-83
2023/08/13 07:59:33;;;;;;;9.80;3.60;;;;;;;18.41;100.00;101053.25;4993921;28;20430;-83
2023/08/13 08:02:07;;;;;;;8.93;3.30;;;;;;;18.56;100.00;101051.13;4990448;28;20818;-82
2023/08/13 08:04:36;;;;;;;8.25;3.10;;;;;;;18.63;100.00;101056.94;4996818;28;20425;-83
2023/08/13 08:07:11;;;;;;;15.13;3.22;;;;;;;18.72;100.00;101060.50;4995673;28;20438;-82
2023/08/13 08:09:44;;;;;;;8.55;2.72;;;;;;;18.90;100.00;101061.31;5022197;28;20438;-82
2023/08/13 08:12:17;;;;;;;8.90;2.80;;;;;;;19.01;100.00;101061.78;4999081;28;20477;-82
2023/08/13 08:14:52;;;;;;;9.50;2.70;;;;;;;19.18;100.00;101056.25;4992357;28;20457;-82
2023/08/13 08:17:22;;;;;;;9.00;2.83;;;;;;;19.24;100.00;101062.38;4992450;28;20440;-83
2023/08/13 08:19:50;;;;;;;10.73;2.97;;;;;;;19.20;100.00;101062.22;4989082;28;20437;-82
2023/08/13 08:22:19;;;;;;;8.77;3.30;;;;;;;19.19;100.00;101057.03;4991502;28;20430;-82
2023/08/13 08:24:52;;;;;;;9.23;3.20;;;;;;;19.20;100.00;101053.94;4994453;28;20425;-82
2023/08/13 08:27:25;;;;;;;10.65;2.67;;;;;;;19.23;100.00;101057.22;5008092;28;20441;-81
2023/08/13 08:30:00;;;;;;;10.35;3.35;;;;;;;19.26;100.00;101057.34;4992404;28;20432;-81
2023/08/13 08:32:35;;;;;;;8.37;2.90;;;;;;;19.10;100.00;101062.59;5007597;28;20441;-85
2023/08/13 08:35:04;;;;;;;9.00;2.80;;;;;;;19.25;100.00;101071.47;4991124;28;20435;-84
2023/08/13 08:37:32;;;;;;;8.27;2.40;;;;;;;19.12;100.00;101063.06;4995558;28;20432;-83
2023/08/13 08:40:00;;;;;;;7.85;2.58;;;;;;;19.02;100.00;101069.75;4993140;28;20434;-84
2023/08/13 08:42:36;;;;;;;7.63;2.50;;;;;;;19.25;100.00;101069.53;5011561;28;20451;-83
2023/08/13 08:45:11;;;;;;;9.00;2.55;;;;;;;19.27;100.00;101071.97;4995618;28;20428;-83
2023/08/13 08:47:41;;;;;;;8.85;2.50;;;;;;;19.38;100.00;101065.72;5027352;28;20440;-84
2023/08/13 08:50:11;;;;;;;9.60;2.47;;;;;;;19.56;100.00;101059.34;4995089;28;20443;-83
2023/08/13 08:52:44;;;;;;;8.50;2.58;;;;;;;19.53;100.00;101058.06;5008116;28;20441;-84
2023/08/13 08:55:18;;;;;;;8.82;2.30;;;;;;;19.67;100.00;101061.38;4997127;28;20438;-81
2023/08/13 08:57:51;;;;;;;8.68;2.25;;;;;;;19.76;100.00;101052.25;4995344;28;20429;-84
2023/08/13 09:00:26;;;;;;;9.73;2.38;;;;;;;19.79;100.00;101065.38;4996431;28;20439;-84
2023/08/13 09:02:54;;;;;;;8.30;2.38;;;;;;;20.15;100.00;101058.53;4996042;28;20849;-84
2023/08/13 09:05:27;;;;;;;8.30;2.77;;;;;;;20.22;100.00;101067.13;5000151;28;20426;-83
2023/08/13 09:07:56;;;;;;;6.45;2.22;;;;;;;20.09;100.00;101063.44;5004826;28;20442;-83
2023/08/13 09:10:33;;;;;;;8.80;2.30;;;;;;;19.84;100.00;101056.94;5002607;28;20452;-84
2023/08/13 09:13:07;;;;;;;8.32;2.50;;;;;;;19.82;100.00;101059.25;5001589;28;20912;-84
2023/08/13 09:15:45;;;;;;;12.40;2.40;;;;;;;19.75;100.00;101056.16;4994530;28;20795;-82
2023/08/13 09:18:18;;;;;;;8.95;2.33;;;;;;;20.00;100.00;101052.47;5002079;28;20420;-83
2023/08/13 09:20:51;;;;;;;9.95;2.40;;;;;;;20.08;100.00;101059.09;4997270;28;20438;-82
2023/08/13 09:23:23;;;;;;;7.83;2.40;;;;;;;19.83;100.00;101055.31;5000293;28;20889;-83
2023/08/13 09:25:57;;;;;;;9.17;2.37;;;;;;;19.92;100.00;101064.38;4994546;28;20438;-84
2023/08/13 09:28:33;;;;;;;9.40;1.88;;;;;;;20.05;100.00;101060.56;5002015;28;20757;-85
2023/08/13 09:31:08;;;;;;;6.78;1.90;;;;;;;20.38;100.00;101059.00;4998896;28;20432;-84
2023/08/13 09:33:43;;;;;;;7.57;1.77;;;;;;;20.47;100.00;101057.00;4992127;28;21063;-83
2023/08/13 09:36:17;;;;;;;8.63;2.15;;;;;;;20.49;100.00;101059.41;5000265;28;20818;-82
2023/08/13 09:38:50;;;;;;;9.90;2.10;;;;;;;20.32;100.00;101052.09;4997664;28;20456;-82
2023/08/13 09:41:23;;;;;;;6.90;2.00;;;;;;;20.27;100.00;101052.28;4997312;28;20432;-83
2023/08/13 09:44:04;;;;;;;8.07;1.90;;;;;;;20.48;100.00;101063.31;4998998;28;20443;-82
2023/08/13 09:46:41;;;;;;;8.15;2.20;;;;;;;20.61;100.00;101050.38;4996356;28;20443;-82
2023/08/13 09:49:16;;;;;;;6.53;1.80;;;;;;;20.86;100.00;101045.78;4998873;28;20445;-84
2023/08/13 09:51:50;;;;;;;7.32;2.00;;;;;;;21.00;100.00;101040.72;5000478;28;20446;-84
2023/08/13 09:54:30;;;;;;;4.17;1.40;;;;;;;21.01;100.00;101045.13;4994130;28;20785;-82
2023/08/13 09:57:03;;;;;;;7.30;1.80;;;;;;;20.89;100.00;101050.63;4993987;28;20463;-84
2023/08/13 09:59:37;;;;;;;8.38;1.65;;;;;;;20.62;100.00;101054.75;4996456;28;20445;-84
2023/08/13 10:02:14;;;;;;;5.65;1.50;;;;;;;20.73;100.00;101056.78;4998609;28;20426;-83
2023/08/13 10:04:48;;;;;;;6.07;1.70;;;;;;;20.99;100.00;101052.97;5000019;28;20479;-84
2023/08/13 10:07:22;;;;;;;4.55;1.50;;;;;;;20.90;100.00;101049.47;4998057;28;20451;-85
2023/08/13 10:09:55;;;;;;;6.80;1.45;;;;;;;20.77;100.00;101039.50;5008961;28;21393;-84
2023/08/13 10:12:24;;;;;;;6.23;1.70;;;;;;;20.85;100.00;101041.38;4997613;28;20447;-83
2023/08/13 10:14:58;;;;;;;5.57;1.40;;;;;;;20.87;100.00;101039.09;5000609;28;20423;-83
2023/08/13 10:17:33;;;;;;;8.57;1.80;;;;;;;20.78;100.00;101046.66;4995580;28;20443;-85
2023/08/13 10:20:09;;;;;;;6.40;1.60;;;;;;;20.55;100.00;101047.03;4997531;28;20427;-85
2023/08/13 10:22:38;;;;;;;5.07;1.52;;;;;;;20.45;100.00;101048.22;4993928;28;20433;-84
2023/08/13 10:25:10;;;;;;;6.32;1.50;;;;;;;20.28;100.00;101049.19;4993185;28;20434;-84
2023/08/13 10:27:43;;;;;;;6.45;1.58;;;;;;;20.38;100.00;101053.47;5026072;28;20438;-83
2023/08/13 10:30:17;;;;;;;6.80;1.60;;;;;;;20.81;100.00;101046.81;4999713;28;20428;-83
2023/08/13 10:32:59;;;;;;;7.72;2.00;;;;;;;20.94;100.00;101050.41;4996251;28;20434;-82
2023/08/13 10:35:31;;;;;;;6.77;1.80;;;;;;;21.20;100.00;101050.13;4999969;28;21016;-84
2023/08/13 10:38:02;;;;;;;4.93;1.33;;;;;;;21.38;100.00;101053.47;5010460;28;20788;-82
2023/08/13 10:40:31;;;;;;;6.57;2.22;;;;;;;21.70;100.00;101055.72;4991706;28;20424;-82
2023/08/13 10:43:05;;;;;;;4.80;1.53;;;;;;;21.67;100.00;101045.34;4993658;28;20433;-83
2023/08/13 10:45:38;;;;;;;2.88;1.20;;;;;;;21.57;100.00;101050.19;4997800;28;20934;-85
2023/08/13 10:48:12;;;;;;;3.95;1.40;;;;;;;21.53;100.00;101049.25;4996637;28;20445;-84
2023/08/13 10:50:46;;;;;;;4.70;1.80;;;;;;;21.56;100.00;101050.53;4999774;28;20442;-83
2023/08/13 10:53:21;;;;;;;5.07;1.55;;;;;;;21.44;100.00;101050.50;4994090;28;20941;-85
2023/08/13 10:55:55;;;;;;;4.25;1.40;;;;;;;21.60;100.00;101053.41;4992581;28;20430;-85
2023/08/13 10:58:39;;;;;;;4.93;1.50;;;;;;;21.85;100.00;101055.03;5009152;28;20438;-83
2023/08/13 11:01:13;;;;;;;4.88;1.40;;;;;;;22.09;100.00;101037.53;4995748;28;20437;-86
2023/08/13 11:03:55;;;;;;;4.85;1.50;;;;;;;22.20;100.00;101043.41;4993444;28;20441;-83
2023/08/13 11:06:29;;;;;;;4.30;1.40;;;;;;;22.40;100.00;101043.63;4995212;28;20437;-81
2023/08/13 11:09:00;;;;;;;8.50;2.05;;;;;;;21.66;100.00;101038.97;4997652;28;20444;-83
2023/08/13 11:11:34;;;;;;;15.52;8.40;;;;;;;21.43;100.00;101054.41;4993330;28;20437;-82
2023/08/13 11:14:02;;;;;;;5.15;1.30;;;;;;;21.15;100.00;101052.31;4994104;28;20446;-83
2023/08/13 11:16:36;;;;;;;3.95;1.40;;;;;;;21.46;100.00;101046.22;4953567;28;20448;-82
2023/08/13 11:19:05;;;;;;;5.88;1.60;;;;;;;21.89;100.00;101042.09;4989186;28;20436;-83
2023/08/13 11:21:39;;;;;;;4.55;1.30;;;;;;;21.66;100.00;101047.28;4981565;28;20436;-81
2023/08/13 11:24:13;;;;;;;4.85;1.23;;;;;;;21.91;100.00;101042.53;4980485;28;20444;-83
2023/08/13 11:26:48;;;;;;;4.63;1.30;;;;;;;22.28;100.00;101038.88;4980909;28;20474;-82
2023/08/13 11:29:22;;;;;;;2.28;1.02;;;;;;;22.25;100.00;101045.94;4978195;28;20426;-83
2023/08/13 11:31:55;;;;;;;4.93;1.30;;;;;;;22.07;100.00;101039.84;4980806;28;20982;-82
2023/08/13 11:34:35;;;;;;;4.13;1.10;;;;;;;21.95;100.00;101041.84;4982956;28;20432;-81
2023/08/13 11:37:04;;;;;;;3.38;1.20;;;;;;;21.76;100.00;101037.69;4979589;28;20438;-84
2023/08/13 11:39:38;;;;;;;4.23;1.50;;;;;;;21.96;100.00;101040.69;4983263;28;20425;-84